HCC weather

Columbia County Airport
Hudson, New York, United States

Public forecast

Using degrees Fahrenheit for public forecast. Weather courtesy of forecast.io.

Closest aviation weather report (METAR) to Columbia County Airport

Closest report is Pittsfield Municipal Airport, 20.2 nm (37.5 km) ENE. Retrieved 2019/10/21 13:44 UTC (0 seconds ago):

KPSF 211344Z AUTO 00000KT 9SM SCT001 07/06 A3010 RMK AO2 T00720061

Closest aviation forecast (TAF) to Columbia County Airport

Closest forecast is Pittsfield Municipal Airport, 20.2 nm (37.5 km) ENE. Retrieved 2019/10/21 12:45 UTC (54 minutes ago):

TAF KPSF 211142Z 2112/2212 00000KT 1/4SM FG VV002 FM211400 00000KT 5SM BR OVC005 FM211600 03003KT P6SM SKC FM220500 09004KT P6SM FEW025